sensor_id;sensor_type;location;lat;lon;timestamp;P1;durP1;ratioP1;P2;durP2;ratioP2
1735;SDS011;865;53.672;10.250;2023-06-10T00:01:40;0.80;;;0.80;;
1735;SDS011;865;53.672;10.250;2023-06-10T00:04:07;0.47;;;0.47;;
1735;SDS011;865;53.672;10.250;2023-06-10T00:06:34;0.67;;;0.67;;
1735;SDS011;865;53.672;10.250;2023-06-10T00:09:05;0.37;;;0.37;;
1735;SDS011;865;53.672;10.250;2023-06-10T00:11:37;0.43;;;0.43;;
1735;SDS011;865;53.672;10.250;2023-06-10T00:14:03;0.60;;;0.60;;
1735;SDS011;865;53.672;10.250;2023-06-10T00:16:31;0.20;;;0.20;;
1735;SDS011;865;53.672;10.250;2023-06-10T00:18:59;0.33;;;0.33;;
1735;SDS011;865;53.672;10.250;2023-06-10T00:21:27;0.40;;;0.40;;
1735;SDS011;865;53.672;10.250;2023-06-10T00:23:54;0.75;;;0.75;;
1735;SDS011;865;53.672;10.250;2023-06-10T00:26:22;0.83;;;0.83;;
1735;SDS011;865;53.672;10.250;2023-06-10T00:28:49;0.60;;;0.60;;
1735;SDS011;865;53.672;10.250;2023-06-10T00:31:16;0.40;;;0.40;;
1735;SDS011;865;53.672;10.250;2023-06-10T00:33:43;0.43;;;0.43;;
1735;SDS011;865;53.672;10.250;2023-06-10T00:36:10;0.40;;;0.40;;
1735;SDS011;865;53.672;10.250;2023-06-10T00:38:36;0.63;;;0.63;;
1735;SDS011;865;53.672;10.250;2023-06-10T00:41:02;0.87;;;0.87;;
1735;SDS011;865;53.672;10.250;2023-06-10T00:43:29;0.40;;;0.40;;
1735;SDS011;865;53.672;10.250;2023-06-10T00:45:55;0.47;;;0.47;;
1735;SDS011;865;53.672;10.250;2023-06-10T00:48:22;0.27;;;0.27;;
1735;SDS011;865;53.672;10.250;2023-06-10T00:50:49;0.40;;;0.40;;
1735;SDS011;865;53.672;10.250;2023-06-10T00:53:16;0.82;;;0.82;;
1735;SDS011;865;53.672;10.250;2023-06-10T00:55:43;0.50;;;0.50;;
1735;SDS011;865;53.672;10.250;2023-06-10T00:58:10;0.50;;;0.50;;
1735;SDS011;865;53.672;10.250;2023-06-10T01:00:37;1.07;;;1.07;;
1735;SDS011;865;53.672;10.250;2023-06-10T01:03:03;0.00;;;0.00;;
1735;SDS011;865;53.672;10.250;2023-06-10T01:05:35;0.00;;;0.00;;
1735;SDS011;865;53.672;10.250;2023-06-10T01:10:56;0.00;;;0.00;;
1735;SDS011;865;53.672;10.250;2023-06-10T01:13:26;0.00;;;0.00;;
1735;SDS011;865;53.672;10.250;2023-06-10T01:15:58;0.00;;;0.00;;
1735;SDS011;865;53.672;10.250;2023-06-10T01:18:29;0.00;;;0.00;;
1735;SDS011;865;53.672;10.250;2023-06-10T01:20:57;0.00;;;0.00;;
1735;SDS011;865;53.672;10.250;2023-06-10T01:23:23;0.00;;;0.00;;
1735;SDS011;865;53.672;10.250;2023-06-10T01:25:53;0.00;;;0.00;;
1735;SDS011;865;53.672;10.250;2023-06-10T01:31:51;0.00;;;0.00;;
1735;SDS011;865;53.672;10.250;2023-06-10T01:34:01;0.00;;;0.00;;
1735;SDS011;865;53.672;10.250;2023-06-10T01:36:29;0.00;;;0.00;;
1735;SDS011;865;53.672;10.250;2023-06-10T01:38:57;0.00;;;0.00;;
1735;SDS011;865;53.672;10.250;2023-06-10T01:41:26;0.00;;;0.00;;
1735;SDS011;865;53.672;10.250;2023-06-10T01:43:54;0.00;;;0.00;;
1735;SDS011;865;53.672;10.250;2023-06-10T01:46:21;0.00;;;0.00;;
1735;SDS011;865;53.672;10.250;2023-06-10T01:48:48;0.00;;;0.00;;
1735;SDS011;865;53.672;10.250;2023-06-10T01:51:15;0.00;;;0.00;;
1735;SDS011;865;53.672;10.250;2023-06-10T01:53:42;0.00;;;0.00;;
1735;SDS011;865;53.672;10.250;2023-06-10T01:56:08;0.00;;;0.00;;
1735;SDS011;865;53.672;10.250;2023-06-10T01:58:35;0.00;;;0.00;;
1735;SDS011;865;53.672;10.250;2023-06-10T02:01:01;0.00;;;0.00;;
1735;SDS011;865;53.672;10.250;2023-06-10T02:03:28;0.00;;;0.00;;
1735;SDS011;865;53.672;10.250;2023-06-10T02:05:55;0.00;;;0.00;;
1735;SDS011;865;53.672;10.250;2023-06-10T02:08:21;0.00;;;0.00;;
1735;SDS011;865;53.672;10.250;2023-06-10T02:10:48;0.00;;;0.00;;
1735;SDS011;865;53.672;10.250;2023-06-10T02:13:14;0.00;;;0.00;;
1735;SDS011;865;53.672;10.250;2023-06-10T02:15:41;0.00;;;0.00;;
1735;SDS011;865;53.672;10.250;2023-06-10T02:18:07;0.00;;;0.00;;
1735;SDS011;865;53.672;10.250;2023-06-10T02:20:34;0.00;;;0.00;;
1735;SDS011;865;53.672;10.250;2023-06-10T02:23:00;0.00;;;0.00;;
1735;SDS011;865;53.672;10.250;2023-06-10T02:25:27;0.00;;;0.00;;
1735;SDS011;865;53.672;10.250;2023-06-10T02:27:53;0.00;;;0.00;;
1735;SDS011;865;53.672;10.250;2023-06-10T02:30:20;0.00;;;0.00;;
1735;SDS011;865;53.672;10.250;2023-06-10T02:32:47;0.00;;;0.00;;
1735;SDS011;865;53.672;10.250;2023-06-10T02:35:14;0.00;;;0.00;;
1735;SDS011;865;53.672;10.250;2023-06-10T02:37:41;0.00;;;0.00;;
1735;SDS011;865;53.672;10.250;2023-06-10T02:40:09;0.00;;;0.00;;
1735;SDS011;865;53.672;10.250;2023-06-10T02:42:36;0.00;;;0.00;;
1735;SDS011;865;53.672;10.250;2023-06-10T02:45:03;0.00;;;0.00;;
1735;SDS011;865;53.672;10.250;2023-06-10T02:47:30;0.00;;;0.00;;
1735;SDS011;865;53.672;10.250;2023-06-10T02:49:56;0.00;;;0.00;;
1735;SDS011;865;53.672;10.250;2023-06-10T02:52:23;0.00;;;0.00;;
1735;SDS011;865;53.672;10.250;2023-06-10T02:54:49;0.00;;;0.00;;
1735;SDS011;865;53.672;10.250;2023-06-10T02:57:16;0.00;;;0.00;;
1735;SDS011;865;53.672;10.250;2023-06-10T02:59:42;0.00;;;0.00;;
1735;SDS011;865;53.672;10.250;2023-06-10T03:02:08;0.00;;;0.00;;
1735;SDS011;865;53.672;10.250;2023-06-10T03:04:35;0.00;;;0.00;;
1735;SDS011;865;53.672;10.250;2023-06-10T03:07:03;0.00;;;0.00;;
1735;SDS011;865;53.672;10.250;2023-06-10T03:09:33;0.00;;;0.00;;
1735;SDS011;865;53.672;10.250;2023-06-10T03:12:00;0.00;;;0.00;;
1735;SDS011;865;53.672;10.250;2023-06-10T03:14:26;0.00;;;0.00;;
1735;SDS011;865;53.672;10.250;2023-06-10T03:16:53;0.00;;;0.00;;
1735;SDS011;865;53.672;10.250;2023-06-10T03:19:19;0.00;;;0.00;;
1735;SDS011;865;53.672;10.250;2023-06-10T03:21:49;0.00;;;0.00;;
1735;SDS011;865;53.672;10.250;2023-06-10T03:24:20;0.00;;;0.00;;
1735;SDS011;865;53.672;10.250;2023-06-10T03:26:48;0.00;;;0.00;;
1735;SDS011;865;53.672;10.250;2023-06-10T03:29:14;0.00;;;0.00;;
1735;SDS011;865;53.672;10.250;2023-06-10T03:31:41;0.00;;;0.00;;
1735;SDS011;865;53.672;10.250;2023-06-10T03:34:07;0.00;;;0.00;;
1735;SDS011;865;53.672;10.250;2023-06-10T03:36:34;0.00;;;0.00;;
1735;SDS011;865;53.672;10.250;2023-06-10T03:39:03;0.00;;;0.00;;
1735;SDS011;865;53.672;10.250;2023-06-10T03:41:29;0.00;;;0.00;;
1735;SDS011;865;53.672;10.250;2023-06-10T03:43:58;0.00;;;0.00;;
1735;SDS011;865;53.672;10.250;2023-06-10T03:46:24;0.00;;;0.00;;
1735;SDS011;865;53.672;10.250;2023-06-10T03:48:51;0.00;;;0.00;;
1735;SDS011;865;53.672;10.250;2023-06-10T03:51:18;0.00;;;0.00;;
1735;SDS011;865;53.672;10.250;2023-06-10T03:53:44;0.00;;;0.00;;
1735;SDS011;865;53.672;10.250;2023-06-10T03:56:10;0.00;;;0.00;;
1735;SDS011;865;53.672;10.250;2023-06-10T03:58:37;0.00;;;0.00;;
1735;SDS011;865;53.672;10.250;2023-06-10T04:01:03;0.00;;;0.00;;
1735;SDS011;865;53.672;10.250;2023-06-10T04:03:30;0.00;;;0.00;;
1735;SDS011;865;53.672;10.250;2023-06-10T04:05:58;0.00;;;0.00;;
1735;SDS011;865;53.672;10.250;2023-06-10T04:08:25;0.00;;;0.00;;
1735;SDS011;865;53.672;10.250;2023-06-10T04:10:51;0.00;;;0.00;;
1735;SDS011;865;53.672;10.250;2023-06-10T04:13:18;0.00;;;0.00;;
1735;SDS011;865;53.672;10.250;2023-06-10T04:15:45;0.00;;;0.00;;
1735;SDS011;865;53.672;10.250;2023-06-10T04:18:12;0.00;;;0.00;;
1735;SDS011;865;53.672;10.250;2023-06-10T04:20:39;0.00;;;0.00;;
1735;SDS011;865;53.672;10.250;2023-06-10T04:23:05;0.00;;;0.00;;
1735;SDS011;865;53.672;10.250;2023-06-10T04:25:33;0.00;;;0.00;;
1735;SDS011;865;53.672;10.250;2023-06-10T04:28:00;0.00;;;0.00;;
1735;SDS011;865;53.672;10.250;2023-06-10T04:30:26;0.00;;;0.00;;
1735;SDS011;865;53.672;10.250;2023-06-10T04:32:52;0.00;;;0.00;;
1735;SDS011;865;53.672;10.250;2023-06-10T04:35:19;0.00;;;0.00;;
1735;SDS011;865;53.672;10.250;2023-06-10T04:37:46;0.00;;;0.00;;
1735;SDS011;865;53.672;10.250;2023-06-10T04:40:12;0.00;;;0.00;;
1735;SDS011;865;53.672;10.250;2023-06-10T04:42:39;0.00;;;0.00;;
1735;SDS011;865;53.672;10.250;2023-06-10T04:45:06;0.00;;;0.00;;
1735;SDS011;865;53.672;10.250;2023-06-10T04:47:35;0.00;;;0.00;;
1735;SDS011;865;53.672;10.250;2023-06-10T04:50:02;0.00;;;0.00;;
1735;SDS011;865;53.672;10.250;2023-06-10T04:52:29;0.00;;;0.00;;
1735;SDS011;865;53.672;10.250;2023-06-10T04:54:57;0.00;;;0.00;;
1735;SDS011;865;53.672;10.250;2023-06-10T04:57:24;0.00;;;0.00;;
1735;SDS011;865;53.672;10.250;2023-06-10T04:59:51;0.00;;;0.00;;
1735;SDS011;865;53.672;10.250;2023-06-10T05:02:18;0.00;;;0.00;;
1735;SDS011;865;53.672;10.250;2023-06-10T05:04:44;0.00;;;0.00;;
1735;SDS011;865;53.672;10.250;2023-06-10T05:07:11;0.00;;;0.00;;
1735;SDS011;865;53.672;10.250;2023-06-10T05:09:38;0.00;;;0.00;;
1735;SDS011;865;53.672;10.250;2023-06-10T05:12:05;0.00;;;0.00;;
1735;SDS011;865;53.672;10.250;2023-06-10T05:14:33;0.00;;;0.00;;
1735;SDS011;865;53.672;10.250;2023-06-10T05:16:59;0.00;;;0.00;;
1735;SDS011;865;53.672;10.250;2023-06-10T05:19:25;0.00;;;0.00;;
1735;SDS011;865;53.672;10.250;2023-06-10T05:21:53;0.00;;;0.00;;
1735;SDS011;865;53.672;10.250;2023-06-10T05:24:20;0.00;;;0.00;;
1735;SDS011;865;53.672;10.250;2023-06-10T05:26:47;0.00;;;0.00;;
1735;SDS011;865;53.672;10.250;2023-06-10T05:29:14;0.00;;;0.00;;
1735;SDS011;865;53.672;10.250;2023-06-10T05:31:41;0.00;;;0.00;;
1735;SDS011;865;53.672;10.250;2023-06-10T05:34:08;0.00;;;0.00;;
1735;SDS011;865;53.672;10.250;2023-06-10T05:36:35;0.00;;;0.00;;
1735;SDS011;865;53.672;10.250;2023-06-10T05:39:01;0.00;;;0.00;;
1735;SDS011;865;53.672;10.250;2023-06-10T05:41:28;0.00;;;0.00;;
1735;SDS011;865;53.672;10.250;2023-06-10T05:43:55;0.00;;;0.00;;
1735;SDS011;865;53.672;10.250;2023-06-10T05:46:22;0.00;;;0.00;;
1735;SDS011;865;53.672;10.250;2023-06-10T05:48:48;0.00;;;0.00;;
1735;SDS011;865;53.672;10.250;2023-06-10T05:51:15;0.00;;;0.00;;
1735;SDS011;865;53.672;10.250;2023-06-10T05:53:42;0.00;;;0.00;;
1735;SDS011;865;53.672;10.250;2023-06-10T05:56:08;0.00;;;0.00;;
1735;SDS011;865;53.672;10.250;2023-06-10T05:58:35;0.00;;;0.00;;
1735;SDS011;865;53.672;10.250;2023-06-10T06:01:02;0.00;;;0.00;;
1735;SDS011;865;53.672;10.250;2023-06-10T06:03:28;0.00;;;0.00;;
1735;SDS011;865;53.672;10.250;2023-06-10T06:05:55;0.00;;;0.00;;
1735;SDS011;865;53.672;10.250;2023-06-10T06:08:22;0.00;;;0.00;;
1735;SDS011;865;53.672;10.250;2023-06-10T06:10:49;0.00;;;0.00;;
1735;SDS011;865;53.672;10.250;2023-06-10T06:13:16;0.00;;;0.00;;
1735;SDS011;865;53.672;10.250;2023-06-10T06:15:42;0.00;;;0.00;;
1735;SDS011;865;53.672;10.250;2023-06-10T06:18:09;0.00;;;0.00;;
1735;SDS011;865;53.672;10.250;2023-06-10T06:20:35;0.00;;;0.00;;
1735;SDS011;865;53.672;10.250;2023-06-10T06:23:02;0.00;;;0.00;;
1735;SDS011;865;53.672;10.250;2023-06-10T06:25:28;0.00;;;0.00;;
1735;SDS011;865;53.672;10.250;2023-06-10T06:27:55;0.00;;;0.00;;
1735;SDS011;865;53.672;10.250;2023-06-10T06:30:21;0.00;;;0.00;;
1735;SDS011;865;53.672;10.250;2023-06-10T06:32:48;0.00;;;0.00;;
1735;SDS011;865;53.672;10.250;2023-06-10T06:35:14;0.00;;;0.00;;
1735;SDS011;865;53.672;10.250;2023-06-10T06:37:41;0.00;;;0.00;;
1735;SDS011;865;53.672;10.250;2023-06-10T06:40:08;0.00;;;0.00;;
1735;SDS011;865;53.672;10.250;2023-06-10T06:42:34;0.00;;;0.00;;
1735;SDS011;865;53.672;10.250;2023-06-10T06:45:01;0.00;;;0.00;;
1735;SDS011;865;53.672;10.250;2023-06-10T06:47:27;0.00;;;0.00;;
1735;SDS011;865;53.672;10.250;2023-06-10T06:49:54;0.00;;;0.00;;
1735;SDS011;865;53.672;10.250;2023-06-10T06:52:20;0.00;;;0.00;;
1735;SDS011;865;53.672;10.250;2023-06-10T06:54:48;0.00;;;0.00;;
1735;SDS011;865;53.672;10.250;2023-06-10T06:57:15;0.00;;;0.00;;
1735;SDS011;865;53.672;10.250;2023-06-10T06:59:41;0.00;;;0.00;;
1735;SDS011;865;53.672;10.250;2023-06-10T07:02:08;0.00;;;0.00;;
1735;SDS011;865;53.672;10.250;2023-06-10T07:04:34;0.00;;;0.00;;
1735;SDS011;865;53.672;10.250;2023-06-10T07:07:01;0.00;;;0.00;;
1735;SDS011;865;53.672;10.250;2023-06-10T07:09:28;0.00;;;0.00;;
1735;SDS011;865;53.672;10.250;2023-06-10T07:11:54;0.00;;;0.00;;
1735;SDS011;865;53.672;10.250;2023-06-10T07:14:21;0.00;;;0.00;;
1735;SDS011;865;53.672;10.250;2023-06-10T07:16:47;0.00;;;0.00;;
1735;SDS011;865;53.672;10.250;2023-06-10T07:19:14;0.00;;;0.00;;
1735;SDS011;865;53.672;10.250;2023-06-10T07:21:41;0.00;;;0.00;;
1735;SDS011;865;53.672;10.250;2023-06-10T07:24:07;0.00;;;0.00;;
1735;SDS011;865;53.672;10.250;2023-06-10T07:26:34;0.00;;;0.00;;
1735;SDS011;865;53.672;10.250;2023-06-10T07:29:01;0.00;;;0.00;;
1735;SDS011;865;53.672;10.250;2023-06-10T07:31:27;0.00;;;0.00;;
1735;SDS011;865;53.672;10.250;2023-06-10T07:33:54;0.00;;;0.00;;
1735;SDS011;865;53.672;10.250;2023-06-10T07:36:20;0.00;;;0.00;;
1735;SDS011;865;53.672;10.250;2023-06-10T07:38:47;0.00;;;0.00;;
1735;SDS011;865;53.672;10.250;2023-06-10T07:41:14;0.00;;;0.00;;
1735;SDS011;865;53.672;10.250;2023-06-10T07:43:43;0.00;;;0.00;;
1735;SDS011;865;53.672;10.250;2023-06-10T07:46:10;0.00;;;0.00;;
1735;SDS011;865;53.672;10.250;2023-06-10T07:48:36;0.00;;;0.00;;
1735;SDS011;865;53.672;10.250;2023-06-10T07:51:03;0.00;;;0.00;;
1735;SDS011;865;53.672;10.250;2023-06-10T07:53:30;0.00;;;0.00;;
1735;SDS011;865;53.672;10.250;2023-06-10T07:55:56;0.00;;;0.00;;
1735;SDS011;865;53.672;10.250;2023-06-10T07:58:23;0.00;;;0.00;;
1735;SDS011;865;53.672;10.250;2023-06-10T08:00:49;0.00;;;0.00;;
1735;SDS011;865;53.672;10.250;2023-06-10T08:03:16;0.00;;;0.00;;
1735;SDS011;865;53.672;10.250;2023-06-10T08:05:42;0.00;;;0.00;;
1735;SDS011;865;53.672;10.250;2023-06-10T08:08:09;0.00;;;0.00;;
1735;SDS011;865;53.672;10.250;2023-06-10T08:10:36;0.00;;;0.00;;
1735;SDS011;865;53.672;10.250;2023-06-10T08:13:02;0.00;;;0.00;;
1735;SDS011;865;53.672;10.250;2023-06-10T08:15:29;0.00;;;0.00;;
1735;SDS011;865;53.672;10.250;2023-06-10T08:17:55;0.00;;;0.00;;
1735;SDS011;865;53.672;10.250;2023-06-10T08:20:22;0.00;;;0.00;;
1735;SDS011;865;53.672;10.250;2023-06-10T08:22:49;0.00;;;0.00;;
1735;SDS011;865;53.672;10.250;2023-06-10T08:25:16;0.00;;;0.00;;
1735;SDS011;865;53.672;10.250;2023-06-10T08:27:43;0.00;;;0.00;;
1735;SDS011;865;53.672;10.250;2023-06-10T08:30:09;0.00;;;0.00;;
1735;SDS011;865;53.672;10.250;2023-06-10T08:32:36;0.00;;;0.00;;
1735;SDS011;865;53.672;10.250;2023-06-10T08:35:03;0.00;;;0.00;;
1735;SDS011;865;53.672;10.250;2023-06-10T08:37:30;0.00;;;0.00;;
1735;SDS011;865;53.672;10.250;2023-06-10T08:39:57;0.00;;;0.00;;
1735;SDS011;865;53.672;10.250;2023-06-10T08:45:31;0.00;;;0.00;;
1735;SDS011;865;53.672;10.250;2023-06-10T08:47:59;0.00;;;0.00;;
1735;SDS011;865;53.672;10.250;2023-06-10T08:50:29;0.00;;;0.00;;
1735;SDS011;865;53.672;10.250;2023-06-10T08:52:57;0.00;;;0.00;;
1735;SDS011;865;53.672;10.250;2023-06-10T08:55:30;0.00;;;0.00;;
1735;SDS011;865;53.672;10.250;2023-06-10T08:58:02;0.00;;;0.00;;
1735;SDS011;865;53.672;10.250;2023-06-10T09:00:28;0.00;;;0.00;;
1735;SDS011;865;53.672;10.250;2023-06-10T09:02:56;0.00;;;0.00;;
1735;SDS011;865;53.672;10.250;2023-06-10T09:05:25;0.00;;;0.00;;
1735;SDS011;865;53.672;10.250;2023-06-10T09:07:53;0.00;;;0.00;;
1735;SDS011;865;53.672;10.250;2023-06-10T09:10:23;0.00;;;0.00;;
1735;SDS011;865;53.672;10.250;2023-06-10T09:12:49;0.00;;;0.00;;
1735;SDS011;865;53.672;10.250;2023-06-10T09:15:16;0.00;;;0.00;;
1735;SDS011;865;53.672;10.250;2023-06-10T09:17:43;0.00;;;0.00;;
1735;SDS011;865;53.672;10.250;2023-06-10T09:20:10;0.00;;;0.00;;
1735;SDS011;865;53.672;10.250;2023-06-10T09:22:38;0.00;;;0.00;;
1735;SDS011;865;53.672;10.250;2023-06-10T09:25:05;0.00;;;0.00;;
1735;SDS011;865;53.672;10.250;2023-06-10T09:27:45;0.00;;;0.00;;
1735;SDS011;865;53.672;10.250;2023-06-10T09:30:29;0.00;;;0.00;;
1735;SDS011;865;53.672;10.250;2023-06-10T09:32:58;0.00;;;0.00;;
1735;SDS011;865;53.672;10.250;2023-06-10T09:35:28;0.00;;;0.00;;
1735;SDS011;865;53.672;10.250;2023-06-10T09:37:57;0.00;;;0.00;;
1735;SDS011;865;53.672;10.250;2023-06-10T09:40:26;0.00;;;0.00;;
1735;SDS011;865;53.672;10.250;2023-06-10T09:43:00;0.00;;;0.00;;
1735;SDS011;865;53.672;10.250;2023-06-10T09:45:30;0.00;;;0.00;;
1735;SDS011;865;53.672;10.250;2023-06-10T09:48:00;0.00;;;0.00;;
1735;SDS011;865;53.672;10.250;2023-06-10T09:50:27;0.00;;;0.00;;
1735;SDS011;865;53.672;10.250;2023-06-10T09:52:54;0.00;;;0.00;;
1735;SDS011;865;53.672;10.250;2023-06-10T09:55:20;0.00;;;0.00;;
1735;SDS011;865;53.672;10.250;2023-06-10T09:57:48;0.00;;;0.00;;
1735;SDS011;865;53.672;10.250;2023-06-10T10:00:15;0.00;;;0.00;;
1735;SDS011;865;53.672;10.250;2023-06-10T10:02:50;0.00;;;0.00;;
1735;SDS011;865;53.672;10.250;2023-06-10T10:05:19;0.00;;;0.00;;
1735;SDS011;865;53.672;10.250;2023-06-10T10:07:50;0.00;;;0.00;;
1735;SDS011;865;53.672;10.250;2023-06-10T10:10:19;0.00;;;0.00;;
1735;SDS011;865;53.672;10.250;2023-06-10T10:12:47;0.00;;;0.00;;
1735;SDS011;865;53.672;10.250;2023-06-10T10:15:15;0.00;;;0.00;;
1735;SDS011;865;53.672;10.250;2023-06-10T10:17:54;0.00;;;0.00;;
1735;SDS011;865;53.672;10.250;2023-06-10T10:20:26;0.00;;;0.00;;
1735;SDS011;865;53.672;10.250;2023-06-10T10:22:57;0.00;;;0.00;;
1735;SDS011;865;53.672;10.250;2023-06-10T10:25:27;0.00;;;0.00;;
1735;SDS011;865;53.672;10.250;2023-06-10T10:28:02;0.00;;;0.00;;
1735;SDS011;865;53.672;10.250;2023-06-10T10:30:58;0.00;;;0.00;;
1735;SDS011;865;53.672;10.250;2023-06-10T10:33:28;0.00;;;0.00;;
1735;SDS011;865;53.672;10.250;2023-06-10T10:35:59;0.00;;;0.00;;
1735;SDS011;865;53.672;10.250;2023-06-10T10:38:27;0.00;;;0.00;;
1735;SDS011;865;53.672;10.250;2023-06-10T10:40:54;0.00;;;0.00;;
1735;SDS011;865;53.672;10.250;2023-06-10T10:43:26;0.00;;;0.00;;
1735;SDS011;865;53.672;10.250;2023-06-10T10:46:01;0.00;;;0.00;;
1735;SDS011;865;53.672;10.250;2023-06-10T10:48:37;0.00;;;0.00;;
1735;SDS011;865;53.672;10.250;2023-06-10T10:51:04;0.00;;;0.00;;
1735;SDS011;865;53.672;10.250;2023-06-10T10:53:30;0.00;;;0.00;;
1735;SDS011;865;53.672;10.250;2023-06-10T10:55:58;0.00;;;0.00;;
1735;SDS011;865;53.672;10.250;2023-06-10T10:58:34;0.00;;;0.00;;
1735;SDS011;865;53.672;10.250;2023-06-10T11:01:09;0.00;;;0.00;;
1735;SDS011;865;53.672;10.250;2023-06-10T11:03:44;0.00;;;0.00;;
1735;SDS011;865;53.672;10.250;2023-06-10T11:06:15;0.00;;;0.00;;
1735;SDS011;865;53.672;10.250;2023-06-10T11:11:20;0.00;;;0.00;;
1735;SDS011;865;53.672;10.250;2023-06-10T11:14:04;0.00;;;0.00;;
1735;SDS011;865;53.672;10.250;2023-06-10T11:16:39;0.00;;;0.00;;
1735;SDS011;865;53.672;10.250;2023-06-10T11:19:07;0.00;;;0.00;;
1735;SDS011;865;53.672;10.250;2023-06-10T11:21:45;0.00;;;0.00;;
1735;SDS011;865;53.672;10.250;2023-06-10T11:24:25;0.00;;;0.00;;
1735;SDS011;865;53.672;10.250;2023-06-10T11:26:52;0.00;;;0.00;;
1735;SDS011;865;53.672;10.250;2023-06-10T11:29:19;0.00;;;0.00;;
1735;SDS011;865;53.672;10.250;2023-06-10T11:31:50;0.00;;;0.00;;
1735;SDS011;865;53.672;10.250;2023-06-10T11:34:21;0.00;;;0.00;;
1735;SDS011;865;53.672;10.250;2023-06-10T11:36:49;0.00;;;0.00;;
1735;SDS011;865;53.672;10.250;2023-06-10T11:39:17;0.00;;;0.00;;
1735;SDS011;865;53.672;10.250;2023-06-10T11:41:45;0.00;;;0.00;;
1735;SDS011;865;53.672;10.250;2023-06-10T11:44:12;0.00;;;0.00;;
1735;SDS011;865;53.672;10.250;2023-06-10T11:46:45;0.00;;;0.00;;
1735;SDS011;865;53.672;10.250;2023-06-10T11:49:13;0.00;;;0.00;;
1735;SDS011;865;53.672;10.250;2023-06-10T11:51:41;0.00;;;0.00;;
1735;SDS011;865;53.672;10.250;2023-06-10T11:54:15;0.00;;;0.00;;
1735;SDS011;865;53.672;10.250;2023-06-10T11:56:42;0.00;;;0.00;;
1735;SDS011;865;53.672;10.250;2023-06-10T11:59:09;0.00;;;0.00;;
1735;SDS011;865;53.672;10.250;2023-06-10T12:01:36;0.00;;;0.00;;
1735;SDS011;865;53.672;10.250;2023-06-10T12:04:10;0.00;;;0.00;;
1735;SDS011;865;53.672;10.250;2023-06-10T12:06:39;0.00;;;0.00;;
1735;SDS011;865;53.672;10.250;2023-06-10T12:12:02;0.00;;;0.00;;
1735;SDS011;865;53.672;10.250;2023-06-10T12:17:21;0.00;;;0.00;;
1735;SDS011;865;53.672;10.250;2023-06-10T12:19:49;0.00;;;0.00;;
1735;SDS011;865;53.672;10.250;2023-06-10T12:22:17;0.00;;;0.00;;
1735;SDS011;865;53.672;10.250;2023-06-10T12:27:29;0.00;;;0.00;;
1735;SDS011;865;53.672;10.250;2023-06-10T12:29:57;0.00;;;0.00;;
1735;SDS011;865;53.672;10.250;2023-06-10T12:32:42;0.00;;;0.00;;
1735;SDS011;865;53.672;10.250;2023-06-10T12:35:11;0.00;;;0.00;;
1735;SDS011;865;53.672;10.250;2023-06-10T12:37:40;0.00;;;0.00;;
1735;SDS011;865;53.672;10.250;2023-06-10T12:40:09;0.00;;;0.00;;
1735;SDS011;865;53.672;10.250;2023-06-10T12:42:36;0.00;;;0.00;;
1735;SDS011;865;53.672;10.250;2023-06-10T12:45:03;0.00;;;0.00;;
1735;SDS011;865;53.672;10.250;2023-06-10T12:47:36;0.00;;;0.00;;
1735;SDS011;865;53.672;10.250;2023-06-10T12:50:05;0.00;;;0.00;;
1735;SDS011;865;53.672;10.250;2023-06-10T12:52:33;0.00;;;0.00;;
1735;SDS011;865;53.672;10.250;2023-06-10T12:54:59;0.00;;;0.00;;
1735;SDS011;865;53.672;10.250;2023-06-10T12:57:27;0.00;;;0.00;;
1735;SDS011;865;53.672;10.250;2023-06-10T12:59:53;0.00;;;0.00;;
1735;SDS011;865;53.672;10.250;2023-06-10T13:02:20;0.00;;;0.00;;
1735;SDS011;865;53.672;10.250;2023-06-10T13:04:47;0.00;;;0.00;;
1735;SDS011;865;53.672;10.250;2023-06-10T13:07:14;0.00;;;0.00;;
1735;SDS011;865;53.672;10.250;2023-06-10T13:09:41;0.00;;;0.00;;
1735;SDS011;865;53.672;10.250;2023-06-10T13:12:07;0.00;;;0.00;;
1735;SDS011;865;53.672;10.250;2023-06-10T13:14:41;0.00;;;0.00;;
1735;SDS011;865;53.672;10.250;2023-06-10T13:17:08;0.00;;;0.00;;
1735;SDS011;865;53.672;10.250;2023-06-10T13:19:34;0.00;;;0.00;;
1735;SDS011;865;53.672;10.250;2023-06-10T13:22:01;0.00;;;0.00;;
1735;SDS011;865;53.672;10.250;2023-06-10T13:24:27;0.00;;;0.00;;
1735;SDS011;865;53.672;10.250;2023-06-10T13:26:54;0.00;;;0.00;;
1735;SDS011;865;53.672;10.250;2023-06-10T13:29:22;0.00;;;0.00;;
1735;SDS011;865;53.672;10.250;2023-06-10T13:31:49;0.00;;;0.00;;
1735;SDS011;865;53.672;10.250;2023-06-10T13:34:15;0.00;;;0.00;;
1735;SDS011;865;53.672;10.250;2023-06-10T13:36:41;0.00;;;0.00;;
1735;SDS011;865;53.672;10.250;2023-06-10T13:39:08;0.00;;;0.00;;
1735;SDS011;865;53.672;10.250;2023-06-10T13:41:36;0.00;;;0.00;;
1735;SDS011;865;53.672;10.250;2023-06-10T13:44:03;0.00;;;0.00;;
1735;SDS011;865;53.672;10.250;2023-06-10T13:46:29;0.00;;;0.00;;
1735;SDS011;865;53.672;10.250;2023-06-10T13:48:56;0.00;;;0.00;;
1735;SDS011;865;53.672;10.250;2023-06-10T13:51:22;0.00;;;0.00;;
1735;SDS011;865;53.672;10.250;2023-06-10T13:53:49;0.00;;;0.00;;
1735;SDS011;865;53.672;10.250;2023-06-10T13:56:16;0.00;;;0.00;;
1735;SDS011;865;53.672;10.250;2023-06-10T13:58:43;0.00;;;0.00;;
1735;SDS011;865;53.672;10.250;2023-06-10T14:01:10;0.00;;;0.00;;
1735;SDS011;865;53.672;10.250;2023-06-10T14:03:37;0.00;;;0.00;;
1735;SDS011;865;53.672;10.250;2023-06-10T14:06:03;0.00;;;0.00;;
1735;SDS011;865;53.672;10.250;2023-06-10T14:08:30;0.00;;;0.00;;
1735;SDS011;865;53.672;10.250;2023-06-10T14:10:56;0.00;;;0.00;;
1735;SDS011;865;53.672;10.250;2023-06-10T14:13:23;0.00;;;0.00;;
1735;SDS011;865;53.672;10.250;2023-06-10T14:15:49;0.00;;;0.00;;
1735;SDS011;865;53.672;10.250;2023-06-10T14:18:16;0.00;;;0.00;;
1735;SDS011;865;53.672;10.250;2023-06-10T14:20:43;0.00;;;0.00;;
1735;SDS011;865;53.672;10.250;2023-06-10T14:23:09;0.00;;;0.00;;
1735;SDS011;865;53.672;10.250;2023-06-10T14:25:35;0.00;;;0.00;;
1735;SDS011;865;53.672;10.250;2023-06-10T14:28:02;0.00;;;0.00;;
1735;SDS011;865;53.672;10.250;2023-06-10T14:30:28;0.00;;;0.00;;
1735;SDS011;865;53.672;10.250;2023-06-10T14:32:55;0.00;;;0.00;;
1735;SDS011;865;53.672;10.250;2023-06-10T14:35:21;0.00;;;0.00;;
1735;SDS011;865;53.672;10.250;2023-06-10T14:37:48;0.00;;;0.00;;
1735;SDS011;865;53.672;10.250;2023-06-10T14:40:14;0.00;;;0.00;;
1735;SDS011;865;53.672;10.250;2023-06-10T14:42:41;0.00;;;0.00;;
1735;SDS011;865;53.672;10.250;2023-06-10T14:45:07;0.00;;;0.00;;
1735;SDS011;865;53.672;10.250;2023-06-10T14:47:36;0.00;;;0.00;;
1735;SDS011;865;53.672;10.250;2023-06-10T14:50:03;0.00;;;0.00;;
1735;SDS011;865;53.672;10.250;2023-06-10T14:52:30;0.00;;;0.00;;
1735;SDS011;865;53.672;10.250;2023-06-10T14:54:56;0.00;;;0.00;;
1735;SDS011;865;53.672;10.250;2023-06-10T14:57:22;0.00;;;0.00;;
1735;SDS011;865;53.672;10.250;2023-06-10T14:59:49;0.00;;;0.00;;
1735;SDS011;865;53.672;10.250;2023-06-10T15:02:16;0.00;;;0.00;;
1735;SDS011;865;53.672;10.250;2023-06-10T15:04:42;0.00;;;0.00;;
1735;SDS011;865;53.672;10.250;2023-06-10T15:07:09;0.00;;;0.00;;
1735;SDS011;865;53.672;10.250;2023-06-10T15:09:35;0.00;;;0.00;;
1735;SDS011;865;53.672;10.250;2023-06-10T15:12:02;0.00;;;0.00;;
1735;SDS011;865;53.672;10.250;2023-06-10T15:14:30;0.00;;;0.00;;
1735;SDS011;865;53.672;10.250;2023-06-10T15:16:56;0.00;;;0.00;;
1735;SDS011;865;53.672;10.250;2023-06-10T15:19:25;0.00;;;0.00;;
1735;SDS011;865;53.672;10.250;2023-06-10T15:21:52;0.00;;;0.00;;
1735;SDS011;865;53.672;10.250;2023-06-10T15:24:19;0.00;;;0.00;;
1735;SDS011;865;53.672;10.250;2023-06-10T15:26:46;0.00;;;0.00;;
1735;SDS011;865;53.672;10.250;2023-06-10T15:29:13;0.00;;;0.00;;
1735;SDS011;865;53.672;10.250;2023-06-10T15:31:39;0.00;;;0.00;;
1735;SDS011;865;53.672;10.250;2023-06-10T15:34:06;0.00;;;0.00;;
1735;SDS011;865;53.672;10.250;2023-06-10T15:36:34;0.00;;;0.00;;
1735;SDS011;865;53.672;10.250;2023-06-10T15:39:04;0.00;;;0.00;;